Time;durP1;ratioP1;P1;durP2;ratioP2;P2;SDS_P1;SDS_P2;PMS_P1;PMS_P2;Temp;Humidity;BMP_temperature;BMP_pressure;BME280_temperature;BME280_humidity;BME280_pressure;Samples;Min_cycle;Max_cycle;Signal;HPM_P1;HPM_P2
2023/08/11 00:01:13;;;;;;;9.52;8.02;;;;;;;19.37;100.00;-18548.06;5098314;28;20036;-76
2023/08/11 00:03:39;;;;;;;9.57;7.72;;;;;;;19.15;100.00;-18542.34;5099084;28;20078;-76
2023/08/11 00:06:07;;;;;;;10.40;7.90;;;;;;;19.10;100.00;-18540.97;5098695;28;20490;-76
2023/08/11 00:08:33;;;;;;;10.03;8.13;;;;;;;18.97;100.00;-18537.44;5096065;28;20036;-76
2023/08/11 00:10:59;;;;;;;9.73;7.90;;;;;;;18.96;100.00;-18537.16;5093185;28;20051;-75
2023/08/11 00:13:25;;;;;;;10.73;7.95;;;;;;;19.03;100.00;-18539.06;5082662;28;20144;-76
2023/08/11 00:15:51;;;;;;;11.27;8.73;;;;;;;19.16;100.00;-18542.47;5099775;28;20787;-76
2023/08/11 00:18:16;;;;;;;12.70;8.13;;;;;;;19.08;100.00;-18540.31;5096124;28;20070;-76
2023/08/11 00:20:41;;;;;;;11.80;8.30;;;;;;;18.96;100.00;-18537.16;5099671;28;20367;-76
2023/08/11 00:23:07;;;;;;;12.55;8.43;;;;;;;18.96;100.00;-18537.03;5095269;28;20071;-76
2023/08/11 00:25:32;;;;;;;14.63;8.63;;;;;;;18.88;100.00;-18535.13;5096713;28;20032;-76
2023/08/11 00:27:58;;;;;;;12.25;8.35;;;;;;;18.72;100.00;-18530.88;5103726;28;20101;-77
2023/08/11 00:30:24;;;;;;;11.95;8.70;;;;;;;18.54;100.00;-18525.97;5103279;28;20060;-77
2023/08/11 00:32:49;;;;;;;12.02;8.38;;;;;;;18.51;100.00;-18525.03;5086899;28;20669;-76
2023/08/11 00:35:15;;;;;;;8.75;7.65;;;;;;;18.65;100.00;-18528.97;5104727;28;20126;-76
2023/08/11 00:37:40;;;;;;;12.90;8.70;;;;;;;18.65;100.00;-18528.84;5103693;28;20051;-76
2023/08/11 00:40:08;;;;;;;13.18;9.18;;;;;;;18.48;100.00;-18524.34;5102415;28;20051;-77
2023/08/11 00:42:34;;;;;;;11.00;8.60;;;;;;;18.47;100.00;-18524.06;5102195;28;22465;-76
2023/08/11 00:44:59;;;;;;;14.23;9.38;;;;;;;18.51;100.00;-18525.03;5100151;28;20075;-76
2023/08/11 00:47:26;;;;;;;11.77;9.65;;;;;;;18.44;100.00;-18523.25;5087024;28;20096;-77
2023/08/11 00:49:52;;;;;;;11.93;8.95;;;;;;;18.33;100.00;-18520.25;5099591;28;20071;-76
2023/08/11 00:52:19;;;;;;;11.07;9.18;;;;;;;18.41;100.00;-18522.44;5098647;28;20522;-76
2023/08/11 00:54:44;;;;;;;13.88;9.38;;;;;;;18.40;100.00;-18522.31;5104429;28;20044;-76
2023/08/11 00:57:10;;;;;;;13.30;9.55;;;;;;;18.31;100.00;-18519.84;5104727;28;20043;-76
2023/08/11 00:59:35;;;;;;;13.65;10.60;;;;;;;18.32;100.00;-18520.13;5099795;28;20044;-76
2023/08/11 01:02:01;;;;;;;13.63;9.68;;;;;;;18.26;100.00;-18518.47;5102563;28;20054;-77
2023/08/11 01:04:27;;;;;;;13.95;9.43;;;;;;;18.25;100.00;-18518.22;5097964;28;20059;-76
2023/08/11 01:06:55;;;;;;;17.08;10.27;;;;;;;18.29;100.00;-18519.16;5083547;28;20131;-77
2023/08/11 01:09:35;;;;;;;12.48;9.82;;;;;;;18.20;100.00;-18516.97;5102264;28;20043;-77
2023/08/11 01:12:35;;;;;;;13.10;9.30;;;;;;;17.96;100.00;-18510.44;5098070;28;20048;-77
2023/08/11 01:15:00;;;;;;;12.43;9.48;;;;;;;18.17;100.00;-18516.16;5084679;28;20445;-77
2023/08/11 01:17:27;;;;;;;13.05;9.48;;;;;;;18.02;100.00;-18512.06;5104019;28;20044;-76
2023/08/11 01:19:53;;;;;;;14.27;9.65;;;;;;;18.00;100.00;-18511.53;5104212;28;20055;-77
2023/08/11 01:22:21;;;;;;;11.07;9.02;;;;;;;17.98;100.00;-18510.97;5106186;28;20047;-76
2023/08/11 01:24:47;;;;;;;13.45;9.95;;;;;;;18.06;100.00;-18513.16;5099438;28;20036;-77
2023/08/11 01:27:13;;;;;;;11.68;9.57;;;;;;;18.12;100.00;-18514.81;5105362;28;20463;-77
2023/08/11 01:29:39;;;;;;;13.23;10.30;;;;;;;18.25;100.00;-18518.22;5106289;28;20074;-77
2023/08/11 01:32:05;;;;;;;13.00;10.60;;;;;;;18.08;100.00;-18513.72;5099918;28;20042;-77
2023/08/11 01:34:31;;;;;;;14.43;10.30;;;;;;;18.11;100.00;-18514.41;5102052;28;20491;-77
2023/08/11 01:37:01;;;;;;;14.80;10.35;;;;;;;18.15;100.00;-18515.63;5105653;28;20039;-77
2023/08/11 01:39:30;;;;;;;12.15;9.82;;;;;;;18.21;100.00;-18517.25;5102547;28;20032;-77
2023/08/11 01:41:56;;;;;;;12.60;9.80;;;;;;;18.14;100.00;-18515.34;5106767;28;20043;-77
2023/08/11 01:44:22;;;;;;;13.77;10.00;;;;;;;18.17;100.00;-18516.16;5107234;28;20062;-77
2023/08/11 01:46:50;;;;;;;13.95;10.10;;;;;;;18.18;100.00;-18516.31;5103469;28;20031;-77
2023/08/11 01:49:16;;;;;;;15.07;10.98;;;;;;;18.10;100.00;-18514.25;5095099;28;20123;-76
2023/08/11 01:51:42;;;;;;;14.80;11.48;;;;;;;17.98;100.00;-18510.97;5103659;28;20035;-77
2023/08/11 01:54:08;;;;;;;15.13;10.75;;;;;;;17.91;100.00;-18509.06;5086724;28;22045;-77
2023/08/11 01:56:38;;;;;;;16.33;11.45;;;;;;;17.95;100.00;-18510.16;5101677;28;20047;-77
2023/08/11 01:59:04;;;;;;;14.40;10.77;;;;;;;17.98;100.00;-18510.97;5102898;28;20050;-77
2023/08/11 02:01:30;;;;;;;17.05;11.35;;;;;;;17.91;100.00;-18509.22;5102262;28;20016;-77
2023/08/11 02:03:57;;;;;;;15.43;11.68;;;;;;;18.02;100.00;-18512.06;5108621;28;20044;-77
2023/08/11 02:06:23;;;;;;;16.17;11.20;;;;;;;18.01;100.00;-18511.94;5105138;28;20035;-77
2023/08/11 02:08:48;;;;;;;18.75;12.15;;;;;;;18.12;100.00;-18514.81;5106859;28;20092;-78
2023/08/11 02:11:13;;;;;;;14.60;11.45;;;;;;;18.06;100.00;-18513.03;5104357;28;20064;-77
2023/08/11 02:13:39;;;;;;;12.98;10.32;;;;;;;17.98;100.00;-18511.13;5104110;28;20059;-77
2023/08/11 02:16:05;;;;;;;15.75;10.55;;;;;;;18.01;100.00;-18511.94;5086714;28;20517;-76
2023/08/11 02:18:30;;;;;;;17.70;11.65;;;;;;;18.01;100.00;-18511.81;5103553;28;20044;-77
2023/08/11 02:20:56;;;;;;;14.68;10.90;;;;;;;17.96;100.00;-18510.44;5105644;28;20047;-76
2023/08/11 02:23:21;;;;;;;17.38;11.02;;;;;;;17.94;100.00;-18510.03;5100839;28;20078;-76
2023/08/11 02:25:47;;;;;;;17.90;11.07;;;;;;;18.06;100.00;-18513.16;5101487;28;20031;-77
2023/08/11 02:28:12;;;;;;;16.90;10.63;;;;;;;18.10;100.00;-18514.25;5101821;28;20042;-76
2023/08/11 02:30:39;;;;;;;14.48;10.02;;;;;;;18.04;100.00;-18512.75;5106275;28;20039;-76
2023/08/11 02:33:06;;;;;;;14.35;10.77;;;;;;;18.08;100.00;-18513.72;5107085;28;20091;-77
2023/08/11 02:35:31;;;;;;;16.25;10.60;;;;;;;18.16;100.00;-18515.75;5101061;28;20036;-77
2023/08/11 02:37:57;;;;;;;16.65;9.65;;;;;;;18.11;100.00;-18514.53;5103932;28;20032;-77
2023/08/11 02:40:22;;;;;;;14.13;9.98;;;;;;;18.12;100.00;-18514.66;5106111;28;20087;-76
2023/08/11 02:42:56;;;;;;;14.13;10.20;;;;;;;18.04;100.00;-18512.75;5106776;28;20487;-76
2023/08/11 02:45:22;;;;;;;15.60;10.70;;;;;;;18.07;100.00;-18513.44;5101789;28;20031;-76
2023/08/11 02:47:50;;;;;;;17.17;9.90;;;;;;;18.06;100.00;-18513.16;5104434;28;20690;-77
2023/08/11 02:50:15;;;;;;;13.63;10.65;;;;;;;17.99;100.00;-18511.25;5101739;28;20035;-77
2023/08/11 02:52:40;;;;;;;13.32;10.43;;;;;;;17.97;100.00;-18510.84;5100368;28;20047;-76
2023/08/11 02:55:07;;;;;;;13.65;11.02;;;;;;;17.98;100.00;-18511.13;5100801;28;20059;-77
2023/08/11 02:57:34;;;;;;;16.42;11.45;;;;;;;17.91;100.00;-18509.06;5101870;27;20099;-77
2023/08/11 02:59:59;;;;;;;14.60;10.40;;;;;;;17.85;100.00;-18507.44;5104653;27;20126;-77
2023/08/11 03:02:24;;;;;;;15.88;11.25;;;;;;;17.89;100.00;-18508.66;5101630;27;20559;-76
2023/08/11 03:04:50;;;;;;;13.27;10.88;;;;;;;18.00;100.00;-18511.53;5102482;27;20039;-77
2023/08/11 03:07:16;;;;;;;15.70;10.68;;;;;;;18.04;100.00;-18512.75;5103245;27;20055;-76
2023/08/11 03:09:42;;;;;;;15.77;11.43;;;;;;;17.99;100.00;-18511.25;5100071;27;20395;-76
2023/08/11 03:12:08;;;;;;;14.07;11.00;;;;;;;17.88;100.00;-18508.38;5105289;27;20035;-77
2023/08/11 03:14:39;;;;;;;15.73;11.45;;;;;;;17.99;100.00;-18511.25;5101445;27;20035;-77
2023/08/11 03:17:05;;;;;;;17.02;10.68;;;;;;;18.07;100.00;-18513.31;5101196;27;20100;-76
2023/08/11 03:19:32;;;;;;;20.25;11.32;;;;;;;18.02;100.00;-18512.22;5102731;28;20032;-76
2023/08/11 03:21:57;;;;;;;17.10;11.93;;;;;;;17.97;100.00;-18510.72;5101238;28;20043;-76
2023/08/11 03:24:22;;;;;;;17.83;11.80;;;;;;;17.93;100.00;-18509.63;5097912;28;20126;-77
2023/08/11 03:26:48;;;;;;;14.55;11.57;;;;;;;17.95;100.00;-18510.31;5101309;28;20043;-77
2023/08/11 03:29:13;;;;;;;17.45;12.13;;;;;;;17.85;100.00;-18507.44;5100393;28;20047;-77
2023/08/11 03:31:38;;;;;;;16.08;11.98;;;;;;;17.87;100.00;-18508.13;5074762;28;20402;-77
2023/08/11 03:34:04;;;;;;;17.17;12.73;;;;;;;17.85;100.00;-18507.56;5102826;28;20070;-77
2023/08/11 03:36:29;;;;;;;17.20;11.30;;;;;;;17.59;100.00;-18500.59;5101783;28;20668;-77
2023/08/11 03:38:54;;;;;;;17.17;12.50;;;;;;;17.58;100.00;-18500.34;5099596;28;20035;-77
2023/08/11 03:41:20;;;;;;;19.20;13.32;;;;;;;17.57;100.00;-18500.19;5105968;28;20039;-76
2023/08/11 03:43:45;;;;;;;16.92;12.52;;;;;;;17.68;100.00;-18503.06;5102214;27;20436;-77
2023/08/11 03:46:11;;;;;;;17.63;12.73;;;;;;;17.71;100.00;-18503.88;5104236;28;20047;-77
2023/08/11 03:48:36;;;;;;;17.77;13.45;;;;;;;17.54;100.00;-18499.25;5083091;28;20048;-77
2023/08/11 03:51:02;;;;;;;18.38;13.85;;;;;;;17.57;100.00;-18500.19;5097466;28;20043;-76
2023/08/11 03:53:28;;;;;;;20.02;13.25;;;;;;;17.56;100.00;-18499.78;5098729;28;20035;-76
2023/08/11 03:55:54;;;;;;;18.90;12.93;;;;;;;17.56;100.00;-18499.94;5098990;28;20047;-77
2023/08/11 03:58:23;;;;;;;19.98;14.05;;;;;;;17.53;100.00;-18499.09;5101855;28;20387;-76
2023/08/11 04:00:48;;;;;;;;;;;;;;;17.51;100.00;-18498.44;5100337;28;20062;-77
2023/08/11 04:03:14;;;;;;;19.83;13.35;;;;;;;17.42;100.00;-18495.97;5103176;28;19923;-76
2023/08/11 04:05:41;;;;;;;18.67;12.73;;;;;;;17.43;100.00;-18496.38;5101380;28;20035;-76
2023/08/11 04:08:06;;;;;;;16.73;13.48;;;;;;;17.45;100.00;-18496.91;5101833;28;20052;-77
2023/08/11 04:10:31;;;;;;;18.65;13.18;;;;;;;17.46;100.00;-18497.06;5082258;28;20361;-76
2023/08/11 04:12:57;;;;;;;18.95;13.80;;;;;;;17.58;100.00;-18500.34;5098527;28;20320;-77
2023/08/11 04:15:23;;;;;;;18.35;13.45;;;;;;;17.60;100.00;-18501.00;5097917;28;20044;-76
2023/08/11 04:17:48;;;;;;;20.50;14.95;;;;;;;17.59;100.00;-18500.59;5102520;28;20075;-77
2023/08/11 04:20:14;;;;;;;18.98;14.30;;;;;;;17.63;100.00;-18501.69;5100938;28;20127;-77
2023/08/11 04:22:40;;;;;;;17.90;13.45;;;;;;;17.60;100.00;-18501.00;5082744;28;20552;-77
2023/08/11 04:25:09;;;;;;;21.77;14.93;;;;;;;17.71;100.00;-18503.88;5086273;28;20452;-76
2023/08/11 04:27:34;;;;;;;20.70;13.90;;;;;;;17.71;100.00;-18503.75;5096416;28;20509;-76
2023/08/11 04:30:00;;;;;;;18.55;13.48;;;;;;;17.78;100.00;-18505.81;5099296;28;20056;-77
2023/08/11 04:32:25;;;;;;;21.77;14.30;;;;;;;17.67;100.00;-18502.66;5100395;28;20144;-76
2023/08/11 04:34:51;;;;;;;22.83;14.77;;;;;;;17.64;100.00;-18501.84;5095868;28;20488;-77
2023/08/11 04:37:18;;;;;;;22.15;14.63;;;;;;;17.58;100.00;-18500.47;5100484;28;20047;-77
2023/08/11 04:39:43;;;;;;;20.60;14.35;;;;;;;17.75;100.00;-18504.97;5089038;28;20032;-76
2023/08/11 04:42:11;;;;;;;18.02;13.45;;;;;;;17.81;100.00;-18506.63;5095914;28;20052;-76
2023/08/11 04:44:37;;;;;;;20.92;14.45;;;;;;;17.77;100.00;-18505.53;5095299;28;20185;-76
2023/08/11 04:47:03;;;;;;;20.52;14.07;;;;;;;17.67;100.00;-18502.66;5102068;28;20174;-76
2023/08/11 04:49:28;;;;;;;18.17;14.35;;;;;;;17.84;100.00;-18507.31;5100958;28;20119;-76
2023/08/11 04:51:53;;;;;;;18.85;14.18;;;;;;;17.95;100.00;-18510.16;5098156;28;20054;-76
2023/08/11 04:54:19;;;;;;;18.73;14.68;;;;;;;18.04;100.00;-18512.75;5100560;28;20515;-77
2023/08/11 04:56:44;;;;;;;18.58;14.07;;;;;;;18.13;100.00;-18514.94;5083743;28;20521;-77
2023/08/11 04:59:10;;;;;;;20.88;14.25;;;;;;;18.20;100.00;-18516.97;5103506;28;20058;-77
2023/08/11 05:01:35;;;;;;;18.52;14.02;;;;;;;18.18;100.00;-18516.31;5102371;28;20043;-77
2023/08/11 05:04:01;;;;;;;18.27;13.30;;;;;;;18.15;100.00;-18515.63;5102811;28;20055;-77
2023/08/11 05:06:26;;;;;;;17.05;13.90;;;;;;;18.23;100.00;-18517.81;5094859;28;20044;-77
2023/08/11 05:08:51;;;;;;;17.13;13.93;;;;;;;18.37;100.00;-18521.34;5100327;28;20074;-77
2023/08/11 05:11:17;;;;;;;18.90;14.40;;;;;;;18.58;100.00;-18526.94;5096568;28;20078;-76
2023/08/11 05:13:43;;;;;;;17.40;13.30;;;;;;;18.56;100.00;-18526.38;5102468;28;20134;-77
2023/08/11 05:16:09;;;;;;;19.40;13.68;;;;;;;18.49;100.00;-18524.75;5098846;28;21148;-77
2023/08/11 05:18:35;;;;;;;17.02;13.23;;;;;;;18.59;100.00;-18527.34;5080052;28;20432;-76
2023/08/11 05:21:01;;;;;;;19.98;13.88;;;;;;;18.63;100.00;-18528.44;5101865;28;20439;-76
2023/08/11 05:23:27;;;;;;;18.80;13.63;;;;;;;18.74;100.00;-18531.16;5100726;28;20050;-77
2023/08/11 05:25:53;;;;;;;19.42;12.52;;;;;;;18.84;100.00;-18533.91;5102654;28;20120;-77
2023/08/11 05:28:19;;;;;;;18.40;13.65;;;;;;;18.86;100.00;-18534.44;5101718;28;20069;-77
2023/08/11 05:30:45;;;;;;;15.57;13.50;;;;;;;18.97;100.00;-18537.31;5098649;28;20465;-76
2023/08/11 05:33:12;;;;;;;16.55;12.30;;;;;;;19.01;100.00;-18538.53;5082353;28;20043;-77
2023/08/11 05:35:39;;;;;;;17.40;12.98;;;;;;;19.11;100.00;-18541.25;5081091;28;20046;-76
2023/08/11 05:38:05;;;;;;;19.92;13.57;;;;;;;19.14;100.00;-18541.94;5093607;28;20079;-76
2023/08/11 05:40:30;;;;;;;19.63;12.85;;;;;;;19.13;100.00;-18541.81;5082297;28;20070;-77
2023/08/11 05:42:56;;;;;;;18.02;12.55;;;;;;;19.18;100.00;-18543.03;5103157;28;20066;-77
2023/08/11 05:45:21;;;;;;;18.92;13.20;;;;;;;19.36;100.00;-18547.78;5098302;28;20039;-77
2023/08/11 05:47:46;;;;;;;17.02;12.45;;;;;;;19.40;100.00;-18548.88;5103067;28;20100;-76
2023/08/11 05:50:12;;;;;;;18.13;12.32;;;;;;;19.36;100.00;-18547.78;5100823;28;20071;-77
2023/08/11 05:52:37;;;;;;;14.73;11.57;;;;;;;19.41;100.00;-18549.16;5101026;28;20040;-77
2023/08/11 05:55:03;;;;;;;17.90;12.05;;;;;;;19.53;100.00;-18552.28;5099219;28;20617;-77
2023/08/11 05:57:28;;;;;;;17.88;12.02;;;;;;;19.64;100.00;-18555.16;5099887;28;20436;-77
2023/08/11 05:59:53;;;;;;;13.90;11.43;;;;;;;19.82;100.00;-18560.19;5077462;28;20044;-77
2023/08/11 06:02:19;;;;;;;15.68;11.75;;;;;;;19.85;100.00;-18560.88;5098202;28;20036;-76
2023/08/11 06:04:45;;;;;;;16.00;11.23;;;;;;;19.93;100.00;-18563.06;5099806;28;20104;-77
2023/08/11 06:07:10;;;;;;;16.48;12.00;;;;;;;20.00;100.00;-18564.81;5100382;28;20134;-77
2023/08/11 06:09:36;;;;;;;14.80;10.63;;;;;;;20.01;100.00;-18565.22;5095062;28;20375;-77
2023/08/11 06:12:01;;;;;;;15.45;10.20;;;;;;;20.19;100.00;-18570.00;5096453;28;20457;-76
2023/08/11 06:14:27;;;;;;;12.00;9.77;;;;;;;20.35;100.00;-18574.22;5096191;28;20036;-75
2023/08/11 06:16:52;;;;;;;13.85;10.55;;;;;;;20.42;100.00;-18576.13;5096360;28;20066;-78
2023/08/11 06:19:17;;;;;;;13.45;10.18;;;;;;;20.42;100.00;-18576.13;5093983;28;20040;-75
2023/08/11 06:21:45;;;;;;;16.83;9.80;;;;;;;20.62;100.00;-18581.44;5097324;28;20039;-78
2023/08/11 06:24:11;;;;;;;13.23;9.60;;;;;;;20.55;100.00;-18579.38;5098448;28;20411;-77
2023/08/11 06:26:36;;;;;;;16.40;9.30;;;;;;;20.28;100.00;-18572.44;5101126;28;20046;-77
2023/08/11 06:29:03;;;;;;;13.75;9.13;;;;;;;20.40;100.00;-18575.56;5083398;28;20618;-77
2023/08/11 06:31:30;;;;;;;11.00;8.02;;;;;;;20.42;100.00;-18576.13;5101436;28;20438;-78
2023/08/11 06:33:55;;;;;;;11.40;7.57;;;;;;;20.57;100.00;-18579.94;5100590;28;20043;-76
2023/08/11 06:36:21;;;;;;;10.13;7.35;;;;;;;20.65;100.00;-18582.09;5096982;28;20078;-77
2023/08/11 06:38:46;;;;;;;10.70;6.90;;;;;;;20.76;100.00;-18584.97;5077661;28;20046;-76
2023/08/11 06:41:12;;;;;;;10.48;7.18;;;;;;;20.80;100.00;-18586.19;5102890;28;20204;-77
2023/08/11 06:43:38;;;;;;;9.05;6.30;;;;;;;20.88;100.00;-18588.22;5100511;28;20043;-75
2023/08/11 06:46:04;;;;;;;9.70;6.22;;;;;;;20.99;100.00;-18591.22;5101483;28;20077;-78
2023/08/11 06:48:29;;;;;;;9.70;5.65;;;;;;;21.13;100.00;-18595.03;5102986;28;20039;-77
2023/08/11 06:50:56;;;;;;;10.27;5.72;;;;;;;21.18;100.00;-18596.25;5099911;28;20130;-76
2023/08/11 06:53:22;;;;;;;10.38;5.93;;;;;;;21.29;100.00;-18599.09;5095249;28;20042;-77
2023/08/11 06:55:47;;;;;;;10.30;5.78;;;;;;;21.42;100.00;-18602.50;5100338;28;20047;-76
2023/08/11 06:58:12;;;;;;;8.82;5.05;;;;;;;21.57;100.00;-18606.59;5101256;28;20149;-76
2023/08/11 07:00:38;;;;;;;8.88;5.45;;;;;;;21.69;100.00;-18609.84;5087296;28;20120;-77
2023/08/11 07:03:04;;;;;;;8.98;5.22;;;;;;;21.79;100.00;-18612.56;5083675;28;20538;-77
2023/08/11 07:05:29;;;;;;;6.40;4.93;;;;;;;21.80;100.00;-18612.69;5101112;28;20039;-75
2023/08/11 07:07:54;;;;;;;8.90;5.68;;;;;;;21.80;100.00;-18612.84;5101303;28;20097;-76
2023/08/11 07:10:20;;;;;;;7.00;5.20;;;;;;;21.82;100.00;-18613.25;5101511;28;20047;-77
2023/08/11 07:12:45;;;;;;;7.55;4.90;;;;;;;21.85;100.00;-18614.19;5100292;28;20069;-76
2023/08/11 07:15:10;;;;;;;9.55;5.15;;;;;;;21.88;100.00;-18614.75;5102494;28;20035;-77
2023/08/11 07:17:36;;;;;;;7.20;4.90;;;;;;;21.91;100.00;-18615.69;5098953;28;20052;-78
2023/08/11 07:20:01;;;;;;;9.23;5.07;;;;;;;22.15;100.00;-18621.94;5101899;28;20051;-77
2023/08/11 07:22:27;;;;;;;5.97;4.10;;;;;;;22.22;100.00;-18623.84;5099571;28;20493;-77
2023/08/11 07:24:53;;;;;;;9.52;5.00;;;;;;;22.30;100.00;-18626.03;5104258;28;20051;-77
2023/08/11 07:27:18;;;;;;;6.03;4.00;;;;;;;22.34;100.00;-18626.97;5100394;28;20160;-76
2023/08/11 07:29:43;;;;;;;9.48;4.50;;;;;;;22.29;100.00;-18625.88;5100282;28;20036;-77
2023/08/11 07:32:09;;;;;;;8.05;4.32;;;;;;;22.48;100.00;-18630.91;5102752;28;20384;-76
2023/08/11 07:34:36;;;;;;;6.55;3.97;;;;;;;22.62;100.00;-18634.56;5101868;28;20047;-76
2023/08/11 07:37:02;;;;;;;8.40;4.15;;;;;;;22.72;100.00;-18637.16;5099783;28;20093;-77
2023/08/11 07:39:28;;;;;;;8.00;4.22;;;;;;;22.75;100.00;-18638.09;5101065;28;20580;-77
2023/08/11 07:41:53;;;;;;;7.95;4.07;;;;;;;22.87;100.00;-18641.09;5103290;28;20119;-75
2023/08/11 07:44:19;;;;;;;6.68;3.75;;;;;;;23.02;100.00;-18645.03;5099191;28;20380;-75
2023/08/11 07:46:44;;;;;;;6.68;3.72;;;;;;;23.00;100.00;-18644.63;5101199;28;20070;-77
2023/08/11 07:49:09;;;;;;;8.30;3.72;;;;;;;23.16;100.00;-18648.81;5098887;28;20078;-74
2023/08/11 07:51:35;;;;;;;6.43;3.60;;;;;;;23.24;100.00;-18650.88;5098671;28;20035;-76
2023/08/11 07:54:00;;;;;;;7.60;3.55;;;;;;;23.39;100.00;-18654.94;5101322;28;20055;-76
2023/08/11 07:56:26;;;;;;;6.72;3.63;;;;;;;23.39;100.00;-18655.06;5078552;28;20177;-76
2023/08/11 07:58:53;;;;;;;7.82;3.80;;;;;;;23.42;100.00;-18655.88;5077766;28;20059;-77
2023/08/11 08:01:18;;;;;;;6.82;3.28;;;;;;;23.51;100.00;-18658.06;5098372;28;20043;-77
2023/08/11 08:03:44;;;;;;;5.68;3.10;;;;;;;23.71;100.00;-18663.47;5098696;28;20455;-75
2023/08/11 08:06:10;;;;;;;6.57;3.70;;;;;;;23.82;100.00;-18666.47;5090406;28;20118;-77
2023/08/11 08:08:35;;;;;;;5.07;3.05;;;;;;;23.69;100.00;-18662.81;5098986;28;20530;-76
2023/08/11 08:11:02;;;;;;;6.85;3.15;;;;;;;23.78;100.00;-18665.25;5098161;28;20070;-76
2023/08/11 08:13:28;;;;;;;6.07;3.50;;;;;;;23.90;100.00;-18668.38;5099159;28;20035;-77
2023/08/11 08:15:54;;;;;;;7.70;3.60;;;;;;;23.95;100.00;-18669.72;5097828;28;20170;-77
2023/08/11 08:18:20;;;;;;;7.22;3.38;;;;;;;24.10;94.39;-18673.91;5096092;28;20583;-77
2023/08/11 08:20:46;;;;;;;7.60;3.08;;;;;;;24.19;92.07;-18676.09;5102258;28;20119;-77
2023/08/11 08:23:12;;;;;;;5.97;3.53;;;;;;;24.23;92.50;-18677.16;5101032;28;20101;-75
2023/08/11 08:25:37;;;;;;;6.75;3.13;;;;;;;24.34;92.52;-18680.16;5100017;28;20032;-77
2023/08/11 08:28:03;;;;;;;6.75;2.92;;;;;;;24.35;93.91;-18680.41;5102589;28;20043;-75
2023/08/11 08:30:29;;;;;;;6.30;2.97;;;;;;;24.56;93.95;-18685.84;5101300;28;20084;-77
2023/08/11 08:32:54;;;;;;;6.40;3.35;;;;;;;24.64;93.71;-18688.00;5103121;28;20042;-74
2023/08/11 08:35:19;;;;;;;4.97;2.83;;;;;;;24.68;90.64;-18689.09;5078258;28;20039;-77
2023/08/11 08:37:45;;;;;;;7.57;3.08;;;;;;;24.73;92.38;-18690.44;5083591;28;20146;-77
2023/08/11 08:40:12;;;;;;;7.50;3.30;;;;;;;24.86;94.88;-18693.84;5099458;28;20047;-77
2023/08/11 08:42:38;;;;;;;6.82;3.15;;;;;;;25.04;97.61;-18698.72;5086611;28;20491;-77
2023/08/11 08:45:05;;;;;;;5.25;2.95;;;;;;;24.95;92.12;-18696.28;5100915;28;20058;-77
2023/08/11 08:47:32;;;;;;;6.75;3.15;;;;;;;25.11;92.93;-18700.47;5104223;28;20039;-77
2023/08/11 08:49:58;;;;;;;7.78;3.50;;;;;;;25.17;91.46;-18702.09;5106246;28;20499;-76
2023/08/11 08:52:24;;;;;;;10.05;3.47;;;;;;;25.19;89.65;-18702.63;5103836;28;20521;-77
2023/08/11 08:54:50;;;;;;;5.28;3.53;;;;;;;25.32;94.24;-18706.16;5104123;28;20063;-75
2023/08/11 08:57:16;;;;;;;5.53;3.10;;;;;;;25.43;89.78;-18709.13;5105146;28;20761;-76
2023/08/11 08:59:42;;;;;;;6.03;3.88;;;;;;;25.56;81.54;-18712.38;5103130;28;20478;-77
2023/08/11 09:02:07;;;;;;;8.10;3.60;;;;;;;25.64;82.60;-18714.56;5105615;28;20049;-75
2023/08/11 09:04:34;;;;;;;7.45;3.50;;;;;;;25.80;84.53;-18718.88;5099028;28;20114;-77
2023/08/11 09:07:00;;;;;;;7.68;3.85;;;;;;;25.83;85.64;-18719.56;5086183;28;20047;-76
2023/08/11 09:09:27;;;;;;;7.90;3.35;;;;;;;25.92;88.29;-18721.84;5106285;28;20491;-76
2023/08/11 09:11:53;;;;;;;6.18;3.58;;;;;;;26.03;85.54;-18724.97;5104487;28;20079;-78
2023/08/11 09:14:20;;;;;;;5.85;3.40;;;;;;;26.19;84.46;-18729.16;5105000;28;20046;-75
2023/08/11 09:16:45;;;;;;;7.65;3.30;;;;;;;26.26;88.41;-18730.91;5103983;28;20070;-78
2023/08/11 09:19:12;;;;;;;6.95;3.40;;;;;;;26.37;83.41;-18733.88;5088456;28;20051;-77
2023/08/11 09:21:42;;;;;;;6.72;3.60;;;;;;;26.46;82.35;-18736.31;5101508;28;20043;-76
2023/08/11 09:24:10;;;;;;;10.30;3.20;;;;;;;26.41;80.95;-18734.84;5093155;28;20115;-77
2023/08/11 09:26:36;;;;;;;5.85;3.40;;;;;;;26.51;84.37;-18737.69;5103788;28;20172;-77
2023/08/11 09:29:01;;;;;;;6.25;3.40;;;;;;;26.56;82.66;-18738.91;5085510;28;20044;-78
2023/08/11 09:31:27;;;;;;;6.90;3.35;;;;;;;26.82;89.46;-18745.66;5106094;28;20043;-78
2023/08/11 09:33:52;;;;;;;8.18;3.80;;;;;;;26.82;75.22;-18745.66;5106395;28;20130;-76
2023/08/11 09:36:19;;;;;;;5.75;3.20;;;;;;;27.03;76.45;-18751.19;5107213;28;20487;-78
2023/08/11 09:38:46;;;;;;;9.80;3.50;;;;;;;27.05;81.00;-18751.88;5105547;28;20047;-77
2023/08/11 09:41:16;;;;;;;6.32;3.60;;;;;;;27.08;80.00;-18752.69;5107383;28;20059;-78
2023/08/11 09:43:48;;;;;;;5.65;3.45;;;;;;;26.99;77.41;-18750.25;5105305;28;20052;-78
2023/08/11 09:46:13;;;;;;;8.18;4.20;;;;;;;27.14;77.66;-18754.28;5107289;28;20028;-77
2023/08/11 09:48:38;;;;;;;7.15;3.67;;;;;;;27.18;79.65;-18755.25;5105487;28;20066;-77
2023/08/11 09:51:10;;;;;;;5.80;3.10;;;;;;;27.35;79.07;-18759.84;5088808;28;20035;-76
2023/08/11 09:53:40;;;;;;;4.93;3.10;;;;;;;27.40;74.92;-18761.06;5107898;28;20036;-76
2023/08/11 09:56:07;;;;;;;8.60;3.80;;;;;;;27.45;76.43;-18762.41;5109669;28;20118;-76
2023/08/11 09:58:37;;;;;;;6.10;2.95;;;;;;;27.47;70.67;-18762.94;5107646;28;20099;-75
2023/08/11 10:01:04;;;;;;;7.25;3.58;;;;;;;27.70;74.26;-18768.88;5111455;28;20059;-75
2023/08/11 10:03:34;;;;;;;5.55;3.80;;;;;;;27.70;75.35;-18768.88;5099361;28;20047;-77
2023/08/11 10:06:02;;;;;;;5.50;2.90;;;;;;;27.90;79.52;-18774.41;5104581;28;20049;-77
2023/08/11 10:08:29;;;;;;;8.70;3.92;;;;;;;28.20;76.36;-18782.25;5104593;28;20098;-77
2023/08/11 10:10:54;;;;;;;5.53;3.22;;;;;;;28.30;72.53;-18784.81;5103283;28;20051;-77
2023/08/11 10:13:23;;;;;;;5.30;2.80;;;;;;;28.42;73.94;-18788.03;5102359;28;20731;-77
2023/08/11 10:15:51;;;;;;;5.22;3.20;;;;;;;28.28;63.33;-18784.25;5104763;28;20035;-77
2023/08/11 10:18:18;;;;;;;5.50;2.88;;;;;;;28.35;70.36;-18786.16;5102466;28;20047;-77
2023/08/11 10:20:46;;;;;;;5.07;2.92;;;;;;;28.18;62.20;-18781.56;5103969;28;20426;-77
2023/08/11 10:23:13;;;;;;;6.20;2.67;;;;;;;28.40;65.67;-18787.34;5106252;28;20043;-77
2023/08/11 10:25:39;;;;;;;6.53;2.78;;;;;;;28.54;66.23;-18791.28;5107179;28;20122;-77
2023/08/11 10:28:07;;;;;;;5.88;3.03;;;;;;;28.79;66.86;-18797.75;5105334;28;20118;-77
2023/08/11 10:30:32;;;;;;;5.97;2.90;;;;;;;28.69;66.23;-18795.19;5108109;28;20043;-76
2023/08/11 10:33:08;;;;;;;5.57;2.97;;;;;;;28.91;66.27;-18800.97;5108270;28;20039;-77
2023/08/11 10:35:49;;;;;;;5.53;2.70;;;;;;;28.90;63.47;-18800.56;5088044;28;20063;-78
2023/08/11 10:38:32;;;;;;;5.35;3.10;;;;;;;28.96;64.18;-18802.31;5105696;28;20055;-77
2023/08/11 10:41:03;;;;;;;7.28;2.80;;;;;;;28.72;64.67;-18796.00;5107696;28;20445;-78
2023/08/11 10:43:37;;;;;;;5.28;3.03;;;;;;;28.90;68.09;-18800.72;5111123;28;20046;-77
2023/08/11 10:46:42;;;;;;;6.47;2.92;;;;;;;28.99;67.41;-18803.13;5083529;28;20088;-77
2023/08/11 10:49:07;;;;;;;7.20;2.65;;;;;;;29.24;64.92;-18809.59;4994522;28;20054;-77
2023/08/11 10:51:41;;;;;;;5.60;2.60;;;;;;;29.17;57.68;-18807.72;5027373;28;20382;-77
2023/08/11 10:54:06;;;;;;;4.70;2.30;;;;;;;29.32;57.40;-18811.63;5067416;28;20495;-77
2023/08/11 10:56:33;;;;;;;6.17;2.90;;;;;;;29.18;57.18;-18808.00;5106145;28;20036;-78
2023/08/11 10:59:31;;;;;;;5.38;2.40;;;;;;;29.48;58.78;-18815.94;5104914;28;20418;-77
2023/08/11 11:01:59;;;;;;;5.57;2.35;;;;;;;29.60;54.03;-18819.03;5106373;28;20066;-77
2023/08/11 11:04:30;;;;;;;6.28;2.85;;;;;;;29.73;56.21;-18822.41;5109036;28;20039;-77
2023/08/11 11:06:58;;;;;;;4.72;2.67;;;;;;;29.82;55.36;-18824.97;5102540;28;20032;-78
2023/08/11 11:09:23;;;;;;;4.15;2.20;;;;;;;29.86;57.49;-18826.03;5099604;28;20514;-77